CheckWX is a tool to help pilots better visualize weather data.  It is not intended as a substitute for an official pre-flight weather briefing.

20:58:49 UTC

ESPA TAF
Luleå Airport
Luleå, Sweden
TAF ESPA 162030Z 1621/1623 15005KT 9999 -RA NSC

Jun-16@
21:00 UTC

Jun-16 @ 21:00 UTC

Jun-16@
23:00 UTC

Jun-16 @ 23:00 UTC

TAF ESPA 162030Z 1621/1623 15005KT 9999 -RA NSC
Wind
  • 150° at 5 KTS
Conditions
Light Rain
Cloud Levels
  • No significant clouds